Terminal Aerodrome Forecast
Issued by NWS

Home | Current Version | Previous Version | Text Only | Print | Product List | Glossary On
Versions: 1 2 3 4 5 6 7 8 9 10 11 12 13 14 15 16 17 18 19 20 21 22 23 24 25 26 27 28 29 30 31 32 33 34
000
FTUS45 KGJT 202235 AAA
TAFASE
TAF AMD
KASE 202235Z 2023/2118 32007KT P6SM VCTS SCT070CB BKN100
      TEMPO 2023/2024 VRB20G35KT -TSRA BKN050CB
     FM210200 20006KT P6SM BKN100
     FM211200 VRB04KT P6SM SCT100=

USA.gov is the U.S. government's official web portal to all federal, state and local government web resources and services.